createdAt,value
2023-05-17T00:00:15.246Z,8.38
2023-05-17T00:03:17.928Z,8.65
2023-05-17T00:06:21.019Z,8.32
2023-05-17T00:09:23.918Z,8.70
2023-05-17T00:12:26.639Z,9.33
2023-05-17T00:15:29.247Z,9.27
2023-05-17T00:18:32.142Z,8.65
2023-05-17T00:21:34.929Z,8.75
2023-05-17T00:24:37.554Z,8.90
2023-05-17T00:27:40.049Z,9.20
2023-05-17T00:30:42.640Z,8.90
2023-05-17T00:33:45.123Z,9.07
2023-05-17T00:36:47.655Z,9.02
2023-05-17T00:39:50.268Z,9.90
2023-05-17T00:42:53.378Z,9.20
2023-05-17T00:45:58.541Z,9.02
2023-05-17T00:49:01.601Z,8.57
2023-05-17T00:52:04.742Z,8.57
2023-05-17T00:55:07.596Z,9.10
2023-05-17T00:58:14.375Z,8.63
2023-05-17T01:01:17.158Z,9.23
2023-05-17T01:04:21.880Z,8.93
2023-05-17T01:07:24.489Z,9.02
2023-05-17T01:10:35.617Z,9.27
2023-05-17T01:13:42.850Z,8.53
2023-05-17T01:17:16.733Z,9.02
2023-05-17T01:20:28.512Z,9.57
2023-05-17T01:23:56.441Z,9.95
2023-05-17T01:27:00.633Z,9.40
2023-05-17T01:30:03.396Z,9.50
2023-05-17T01:33:07.322Z,9.40
2023-05-17T01:36:10.078Z,9.13
2023-05-17T01:39:12.606Z,9.35
2023-05-17T01:42:22.464Z,9.30
2023-05-17T01:45:31.087Z,8.93
2023-05-17T01:48:40.226Z,9.43
2023-05-17T01:51:52.761Z,8.18
2023-05-17T01:55:09.098Z,8.52
2023-05-17T01:58:13.215Z,8.00
2023-05-17T02:01:18.857Z,8.17
2023-05-17T02:04:21.555Z,7.82
2023-05-17T02:07:24.205Z,8.25
2023-05-17T02:10:26.821Z,9.07
2023-05-17T02:13:29.508Z,8.20
2023-05-17T02:16:32.029Z,7.50
2023-05-17T02:19:34.626Z,8.00
2023-05-17T02:22:37.694Z,7.63
2023-05-17T02:25:40.189Z,7.68
2023-05-17T02:28:43.370Z,7.60
2023-05-17T02:31:46.270Z,7.83
2023-05-17T02:34:49.117Z,8.18
2023-05-17T02:37:52.163Z,8.20
2023-05-17T02:40:55.135Z,7.97
2023-05-17T02:43:57.562Z,7.70
2023-05-17T02:47:02.474Z,8.20
2023-05-17T02:50:07.827Z,8.13
2023-05-17T02:53:10.472Z,8.07
2023-05-17T02:56:13.555Z,7.25
2023-05-17T02:59:16.112Z,8.17
2023-05-17T03:02:18.727Z,7.87
2023-05-17T03:05:21.947Z,8.38
2023-05-17T03:08:27.196Z,8.48
2023-05-17T03:11:30.554Z,8.13
2023-05-17T03:14:34.554Z,8.23
2023-05-17T03:17:37.831Z,7.50
2023-05-17T03:20:41.201Z,7.53
2023-05-17T03:23:44.020Z,8.32
2023-05-17T03:26:46.540Z,8.07
2023-05-17T03:29:49.646Z,8.03
2023-05-17T03:32:53.423Z,8.17
2023-05-17T03:35:55.980Z,8.25
2023-05-17T03:38:58.596Z,8.38
2023-05-17T03:42:02.381Z,7.97
2023-05-17T03:45:06.702Z,8.33
2023-05-17T03:48:09.231Z,8.67
2023-05-17T03:51:12.223Z,8.52
2023-05-17T03:54:14.846Z,8.05
2023-05-17T03:57:17.418Z,8.25
2023-05-17T04:00:22.037Z,7.87
2023-05-17T04:03:24.527Z,7.30
2023-05-17T04:06:27.353Z,7.90
2023-05-17T04:09:31.391Z,7.65
2023-05-17T04:12:35.468Z,7.57
2023-05-17T04:15:38.020Z,7.47
2023-05-17T04:18:41.723Z,7.83
2023-05-17T04:21:45.844Z,7.90
2023-05-17T04:24:48.922Z,7.50
2023-05-17T04:27:51.472Z,7.13
2023-05-17T04:30:56.343Z,7.47
2023-05-17T04:33:58.947Z,7.13
2023-05-17T04:37:01.488Z,7.70
2023-05-17T04:40:04.668Z,7.50
2023-05-17T04:43:09.269Z,7.38
2023-05-17T04:46:12.820Z,7.40
2023-05-17T04:49:15.453Z,7.10
2023-05-17T04:52:18.139Z,6.55
2023-05-17T04:55:21.860Z,6.97
2023-05-17T04:58:24.768Z,6.78
2023-05-17T05:01:35.410Z,6.53
2023-05-17T05:04:38.046Z,6.33
2023-05-17T05:07:40.689Z,6.70
2023-05-17T05:10:46.354Z,6.70
2023-05-17T05:13:51.089Z,6.82
2023-05-17T05:16:53.811Z,6.83
2023-05-17T05:19:56.693Z,7.27
2023-05-17T05:23:00.995Z,6.57
2023-05-17T05:26:05.182Z,6.80
2023-05-17T05:29:08.113Z,6.97
2023-05-17T05:32:10.775Z,7.20
2023-05-17T05:35:19.209Z,7.23
2023-05-17T05:38:21.808Z,7.43
2023-05-17T05:41:24.719Z,7.13
2023-05-17T05:44:27.656Z,6.25
2023-05-17T05:47:32.315Z,6.63
2023-05-17T05:50:35.940Z,6.37
2023-05-17T05:53:44.156Z,6.68
2023-05-17T05:56:46.690Z,6.45
2023-05-17T05:59:51.554Z,6.70
2023-05-17T06:02:57.553Z,6.47
2023-05-17T06:06:00.251Z,6.67
2023-05-17T06:09:05.959Z,6.53
2023-05-17T06:12:08.722Z,6.47
2023-05-17T06:15:11.583Z,6.63
2023-05-17T06:18:14.539Z,7.00
2023-05-17T06:21:18.498Z,6.37
2023-05-17T06:24:21.247Z,6.65
2023-05-17T06:27:23.939Z,7.45
2023-05-17T06:30:27.822Z,7.22
2023-05-17T06:33:30.613Z,6.70
2023-05-17T06:36:33.873Z,7.07
2023-05-17T06:39:37.247Z,7.43
2023-05-17T06:42:40.967Z,7.38
2023-05-17T06:45:43.470Z,7.55
2023-05-17T06:48:50.960Z,7.57
2023-05-17T06:51:55.816Z,7.13
2023-05-17T06:54:58.432Z,7.22
2023-05-17T06:58:01.591Z,7.35
2023-05-17T07:01:04.395Z,6.57
2023-05-17T07:04:07.174Z,7.10
2023-05-17T07:07:09.904Z,7.50
2023-05-17T07:10:12.721Z,6.95
2023-05-17T07:13:15.905Z,7.05
2023-05-17T07:16:18.445Z,6.90
2023-05-17T07:19:21.070Z,7.30
2023-05-17T07:22:23.904Z,7.43
2023-05-17T07:25:26.518Z,7.55
2023-05-17T07:28:29.960Z,7.15
2023-05-17T07:31:32.415Z,7.32
2023-05-17T07:34:36.259Z,7.03
2023-05-17T07:37:39.863Z,8.00
2023-05-17T07:40:43.050Z,7.60
2023-05-17T07:43:45.764Z,6.97
2023-05-17T07:46:48.454Z,7.70
2023-05-17T07:49:51.037Z,9.30
2023-05-17T07:52:54.027Z,7.77
2023-05-17T07:55:57.552Z,7.90
2023-05-17T07:59:00.548Z,7.45
2023-05-17T08:02:03.905Z,7.90
2023-05-17T08:05:08.473Z,8.60
2023-05-17T08:08:11.283Z,7.73
2023-05-17T08:11:14.404Z,7.90
2023-05-17T08:14:17.935Z,8.10
2023-05-17T08:17:20.655Z,8.07
2023-05-17T08:20:23.348Z,8.07
2023-05-17T08:23:26.029Z,8.20
2023-05-17T08:26:29.941Z,8.40
2023-05-17T08:29:32.443Z,8.07
2023-05-17T08:32:35.013Z,8.93
2023-05-17T08:35:37.940Z,8.77
2023-05-17T08:38:41.395Z,8.60
2023-05-17T08:41:47.282Z,9.80
2023-05-17T08:44:50.148Z,9.80
2023-05-17T08:47:54.674Z,11.25
2023-05-17T08:50:58.185Z,11.00
2023-05-17T08:54:05.864Z,10.10
2023-05-17T08:57:10.822Z,8.98
2023-05-17T09:00:16.538Z,8.95
2023-05-17T09:03:20.060Z,9.00
2023-05-17T09:06:24.405Z,9.27
2023-05-17T09:09:27.731Z,11.47
2023-05-17T09:12:31.349Z,11.63
2023-05-17T09:15:34.465Z,10.57
2023-05-17T09:18:37.254Z,9.98
2023-05-17T09:21:39.911Z,9.53
2023-05-17T09:24:42.992Z,10.10
2023-05-17T09:27:45.671Z,10.13
2023-05-17T09:30:49.457Z,9.95
2023-05-17T09:33:52.155Z,10.15
2023-05-17T09:36:55.223Z,9.40
2023-05-17T09:39:57.670Z,9.57
2023-05-17T09:43:00.923Z,9.38
2023-05-17T09:46:03.441Z,9.15
2023-05-17T09:49:07.198Z,8.65
2023-05-17T09:52:10.459Z,8.40
2023-05-17T09:55:13.288Z,8.70
2023-05-17T09:58:16.595Z,8.23
2023-05-17T10:01:19.638Z,8.32
2023-05-17T10:04:27.633Z,8.20
2023-05-17T10:07:30.602Z,8.43
2023-05-17T10:10:33.451Z,8.57
2023-05-17T10:13:49.262Z,8.82
2023-05-17T10:16:55.512Z,8.25
2023-05-17T10:19:58.674Z,8.18
2023-05-17T10:23:03.998Z,9.20
2023-05-17T10:26:06.979Z,9.10
2023-05-17T10:29:10.036Z,9.07
2023-05-17T10:32:14.513Z,9.10
2023-05-17T10:35:18.655Z,8.40
2023-05-17T10:38:26.192Z,8.70
2023-05-17T10:41:34.457Z,8.60
2023-05-17T10:44:37.964Z,9.27
2023-05-17T10:47:42.858Z,8.55
2023-05-17T10:51:00.740Z,8.63
2023-05-17T10:54:12.033Z,9.00
2023-05-17T10:57:46.800Z,6.87
2023-05-17T11:00:55.805Z,6.18
2023-05-17T11:03:58.943Z,6.53
2023-05-17T11:07:24.011Z,6.38
2023-05-17T11:10:26.927Z,6.73
2023-05-17T11:13:29.703Z,5.70
2023-05-17T11:16:36.860Z,5.93
2023-05-17T11:19:39.956Z,6.50
2023-05-17T11:22:49.487Z,6.70
2023-05-17T11:25:52.122Z,6.80
2023-05-17T11:29:02.242Z,6.20
2023-05-17T11:32:10.627Z,5.80
2023-05-17T11:35:14.605Z,5.30
2023-05-17T11:38:30.933Z,5.22
2023-05-17T11:41:37.753Z,5.17
2023-05-17T11:44:41.113Z,5.13
2023-05-17T11:47:48.695Z,4.85
2023-05-17T11:50:53.652Z,4.65
2023-05-17T11:53:56.620Z,4.78
2023-05-17T11:57:00.500Z,4.53
2023-05-17T12:00:05.390Z,4.40
2023-05-17T12:03:29.172Z,4.55
2023-05-17T12:06:32.864Z,4.40
2023-05-17T12:09:35.748Z,4.65
2023-05-17T12:12:38.265Z,4.37
2023-05-17T12:15:44.624Z,4.43
2023-05-17T12:18:52.072Z,4.60
2023-05-17T12:21:54.695Z,4.82
2023-05-17T12:24:57.267Z,5.70
2023-05-17T12:28:22.431Z,4.77
2023-05-17T12:31:36.940Z,4.77
2023-05-17T12:34:39.622Z,4.65
2023-05-17T12:37:42.608Z,4.50
2023-05-17T12:40:45.986Z,4.90
2023-05-17T12:43:49.687Z,3.03
2023-05-17T12:46:56.314Z,2.60
2023-05-17T12:50:01.117Z,2.50
2023-05-17T12:53:09.443Z,2.83
2023-05-17T12:56:20.053Z,3.55
2023-05-17T12:59:25.631Z,3.57
2023-05-17T13:02:28.604Z,3.80
2023-05-17T13:05:31.292Z,4.20
2023-05-17T13:08:34.345Z,4.30
2023-05-17T13:11:41.228Z,4.35
2023-05-17T13:14:46.903Z,4.27
2023-05-17T13:17:50.527Z,4.07
2023-05-17T13:20:53.211Z,4.70
2023-05-17T13:23:55.756Z,4.95
2023-05-17T13:26:58.212Z,4.63
2023-05-17T13:30:00.715Z,4.07
2023-05-17T13:33:03.453Z,2.70
2023-05-17T13:36:06.583Z,2.97
2023-05-17T13:39:09.070Z,2.88
2023-05-17T13:42:13.161Z,2.47
2023-05-17T13:45:15.826Z,2.70
2023-05-17T13:48:18.505Z,2.40
2023-05-17T13:51:21.108Z,2.20
2023-05-17T13:54:23.926Z,2.60
2023-05-17T13:57:26.570Z,2.40
2023-05-17T14:00:29.436Z,2.40
2023-05-17T14:03:32.323Z,2.30
2023-05-17T14:06:35.125Z,2.60
2023-05-17T14:09:37.799Z,2.50
2023-05-17T14:12:41.142Z,2.67
2023-05-17T14:15:43.702Z,2.90
2023-05-17T14:18:46.420Z,2.60
2023-05-17T14:21:50.204Z,2.65
2023-05-17T14:24:52.644Z,2.75
2023-05-17T14:27:55.200Z,2.47
2023-05-17T14:30:57.782Z,2.47
2023-05-17T14:34:02.754Z,2.70
2023-05-17T14:37:05.235Z,2.50
2023-05-17T14:40:08.267Z,2.28
2023-05-17T14:43:11.021Z,2.30
2023-05-17T14:46:14.862Z,2.00
2023-05-17T14:49:17.493Z,2.40
2023-05-17T14:52:20.149Z,2.15
2023-05-17T14:55:22.995Z,2.50
2023-05-17T14:58:26.299Z,2.42
2023-05-17T15:01:29.167Z,2.17
2023-05-17T15:04:31.803Z,2.63
2023-05-17T15:07:34.544Z,2.90
2023-05-17T15:10:38.609Z,3.17
2023-05-17T15:13:41.350Z,3.10
2023-05-17T15:16:44.240Z,3.10
2023-05-17T15:19:47.176Z,2.60
2023-05-17T15:22:49.766Z,2.65
2023-05-17T15:25:52.219Z,2.00
2023-05-17T15:28:54.656Z,1.90
2023-05-17T15:31:59.155Z,1.63
2023-05-17T15:35:01.705Z,1.53
2023-05-17T15:38:07.325Z,1.60
2023-05-17T15:41:16.010Z,1.63
2023-05-17T15:44:19.316Z,1.25
2023-05-17T15:47:23.893Z,1.50
2023-05-17T15:50:31.310Z,1.30
2023-05-17T15:53:34.242Z,1.27
2023-05-17T15:56:38.413Z,1.38
2023-05-17T15:59:40.910Z,1.02
2023-05-17T16:02:43.376Z,1.20
2023-05-17T16:05:46.175Z,1.17
2023-05-17T16:08:48.732Z,0.85
2023-05-17T16:11:51.255Z,0.80
2023-05-17T16:14:53.696Z,0.77
2023-05-17T16:17:56.543Z,0.80
2023-05-17T16:21:05.320Z,0.83
2023-05-17T16:24:08.034Z,0.80
2023-05-17T16:27:10.648Z,0.80
2023-05-17T16:30:13.885Z,0.80
2023-05-17T16:33:16.697Z,0.83
2023-05-17T16:36:19.341Z,0.90
2023-05-17T16:39:21.840Z,0.90
2023-05-17T16:42:24.387Z,1.15
2023-05-17T16:45:27.273Z,0.75
2023-05-17T16:48:29.951Z,1.00
2023-05-17T16:51:32.453Z,1.10
2023-05-17T16:54:36.269Z,1.00
2023-05-17T16:57:38.820Z,1.05
2023-05-17T17:00:41.341Z,1.10
2023-05-17T17:03:43.973Z,1.13
2023-05-17T17:06:46.425Z,1.47
2023-05-17T17:09:48.887Z,1.27
2023-05-17T17:12:51.426Z,1.30
2023-05-17T17:15:54.737Z,1.30
2023-05-17T17:18:58.006Z,1.43
2023-05-17T17:22:00.634Z,1.30
2023-05-17T17:25:03.508Z,1.00
2023-05-17T17:28:06.500Z,1.33
2023-05-17T17:31:08.986Z,1.30
2023-05-17T17:34:11.483Z,1.60
2023-05-17T17:37:14.133Z,1.30
2023-05-17T17:40:16.686Z,1.27
2023-05-17T17:43:19.369Z,1.80
2023-05-17T17:46:21.931Z,1.55
2023-05-17T17:49:24.464Z,1.90
2023-05-17T17:52:27.165Z,1.50
2023-05-17T17:55:29.609Z,1.50
2023-05-17T17:58:32.062Z,2.35
2023-05-17T18:01:37.436Z,1.50
2023-05-17T18:04:40.801Z,1.60
2023-05-17T18:07:43.395Z,1.43
2023-05-17T18:10:45.902Z,1.35
2023-05-17T18:13:48.422Z,1.50
2023-05-17T18:16:51.458Z,1.17
2023-05-17T18:19:54.153Z,1.40
2023-05-17T18:22:56.689Z,1.20
2023-05-17T18:25:59.283Z,1.42
2023-05-17T18:29:01.830Z,1.50
2023-05-17T18:32:04.750Z,1.48
2023-05-17T18:35:07.784Z,1.20
2023-05-17T18:38:10.701Z,1.40
2023-05-17T18:41:13.459Z,1.20
2023-05-17T18:44:16.970Z,1.10
2023-05-17T18:47:23.516Z,1.20
2023-05-17T18:50:26.173Z,1.17
2023-05-17T18:53:29.405Z,1.30
2023-05-17T18:56:32.750Z,1.30
2023-05-17T18:59:35.369Z,1.40
2023-05-17T19:02:38.125Z,1.30
2023-05-17T19:05:40.813Z,1.30
2023-05-17T19:08:43.645Z,1.10
2023-05-17T19:11:46.450Z,1.10
2023-05-17T19:14:50.533Z,1.13
2023-05-17T19:17:53.443Z,1.10
2023-05-17T19:20:56.486Z,1.27
2023-05-17T19:23:59.272Z,1.77
2023-05-17T19:27:01.854Z,1.13
2023-05-17T19:30:05.389Z,1.30
2023-05-17T19:33:08.598Z,1.20
2023-05-17T19:36:11.546Z,1.40
2023-05-17T19:39:14.176Z,2.70
2023-05-17T19:42:17.174Z,1.65
2023-05-17T19:45:20.011Z,1.48
2023-05-17T19:48:24.227Z,1.60
2023-05-17T19:51:27.047Z,1.60
2023-05-17T19:54:29.874Z,1.60
2023-05-17T19:57:32.616Z,1.30
2023-05-17T20:00:37.513Z,1.40
2023-05-17T20:03:40.734Z,1.67
2023-05-17T20:06:43.801Z,1.40
2023-05-17T20:09:46.514Z,1.60
2023-05-17T20:12:49.513Z,1.42
2023-05-17T20:15:52.273Z,1.40
2023-05-17T20:18:55.115Z,1.63
2023-05-17T20:21:57.763Z,1.20
2023-05-17T20:25:00.402Z,1.20
2023-05-17T20:28:02.851Z,1.30
2023-05-17T20:31:05.373Z,1.40
2023-05-17T20:34:07.939Z,1.27
2023-05-17T20:37:10.557Z,1.47
2023-05-17T20:40:13.143Z,1.40
2023-05-17T20:43:16.862Z,1.20
2023-05-17T20:46:19.604Z,1.30
2023-05-17T20:49:22.488Z,1.30
2023-05-17T20:52:38.296Z,1.20
2023-05-17T20:55:44.452Z,1.10
2023-05-17T20:58:48.957Z,1.20
2023-05-17T21:01:51.565Z,1.23
2023-05-17T21:04:54.733Z,1.30
2023-05-17T21:07:59.831Z,1.10
2023-05-17T21:11:02.550Z,1.10
2023-05-17T21:14:05.138Z,1.05
2023-05-17T21:17:07.627Z,1.05
2023-05-17T21:20:10.851Z,1.17
2023-05-17T21:23:13.655Z,1.13
2023-05-17T21:26:16.169Z,0.90
2023-05-17T21:29:18.758Z,1.10
2023-05-17T21:32:21.333Z,0.90
2023-05-17T21:35:23.894Z,1.00
2023-05-17T21:38:26.362Z,0.90
2023-05-17T21:41:28.889Z,0.83
2023-05-17T21:44:31.360Z,0.90
2023-05-17T21:47:36.059Z,0.90
2023-05-17T21:50:38.764Z,0.95
2023-05-17T21:53:41.263Z,0.93
2023-05-17T21:56:43.870Z,1.00
2023-05-17T21:59:47.985Z,1.00
2023-05-17T22:02:50.726Z,0.80
2023-05-17T22:05:53.314Z,1.00
2023-05-17T22:08:55.850Z,1.10
2023-05-17T22:11:58.986Z,1.00
2023-05-17T22:15:02.390Z,0.80
2023-05-17T22:18:05.288Z,0.95
2023-05-17T22:21:08.913Z,1.00
2023-05-17T22:24:11.421Z,1.20
2023-05-17T22:27:13.922Z,1.00
2023-05-17T22:30:16.826Z,1.08
2023-05-17T22:33:21.782Z,1.20
2023-05-17T22:36:26.704Z,1.00
2023-05-17T22:39:29.184Z,1.37
2023-05-17T22:42:31.912Z,0.80
2023-05-17T22:45:34.778Z,1.02
2023-05-17T22:48:37.631Z,1.10
2023-05-17T22:51:40.367Z,1.35
2023-05-17T22:54:42.969Z,1.00
2023-05-17T22:57:46.625Z,1.10
2023-05-17T23:00:51.260Z,1.10
2023-05-17T23:03:53.884Z,0.88
2023-05-17T23:07:02.366Z,1.00
2023-05-17T23:10:09.964Z,0.97
2023-05-17T23:13:13.094Z,0.83
2023-05-17T23:16:15.630Z,1.00
2023-05-17T23:19:18.254Z,0.90
2023-05-17T23:22:20.851Z,1.02
2023-05-17T23:25:23.370Z,1.10
2023-05-17T23:28:25.904Z,2.17
2023-05-17T23:31:30.039Z,1.20
2023-05-17T23:34:33.264Z,1.20
2023-05-17T23:37:36.848Z,1.15
2023-05-17T23:40:40.279Z,1.30
2023-05-17T23:43:42.777Z,1.20
2023-05-17T23:46:45.310Z,1.00
2023-05-17T23:49:48.066Z,1.40
2023-05-17T23:52:50.538Z,1.40
2023-05-17T23:55:53.195Z,1.20
2023-05-17T23:58:55.965Z,1.20
